00:45
Airports
Links
Donate
Help keep this website running!
PayPal
Bitcoin
METAR
RJTF 210000Z 05007KT 020V090 CAVOK 08/M03 Q1024
Current Weather Conditions at RJTF
VFR 00:00:00 21-11-17
Altimeter:30.24 hg
Temp:8.0°c 46°f
Dew point:-3.0°c 27°f
Wind:7 knots, 8.1 mph, 4 m/s, from 50°
Visibility:6.21 statute miles
(CAVOK)
Past METAR reports
VFR 23:30:00 20-11-17
Altimeter:30.21 hg
Temp:7.0°c 45°f
Dew point:-3.0°c 27°f
Wind:7 knots, 8.1 mph, 4 m/s, from 50°
Visibility:6.21 statute miles
(CAVOK)
RJTF 202330Z 05007KT 020V090 CAVOK 07/M03 Q1023
TAF
No TAF for RJTF
Forecast at RJTF
No Forecast Reports for RJTF